Time;durP1;ratioP1;P1;durP2;ratioP2;P2;SDS_P1;SDS_P2;PMS_P1;PMS_P2;Temp;Humidity;BMP_temperature;BMP_pressure;BME280_temperature;BME280_humidity;BME280_pressure;Samples;Min_cycle;Max_cycle;Signal;HPM_P1;HPM_P2
2023/04/27 00:01:11;;;;;;;9.98;4.15;;;4.30;99.90;;;;;;5106446;28;20104;-75
2023/04/27 00:03:37;;;;;;;9.45;3.70;;;4.30;99.90;;;;;;5108617;28;20044;-73
2023/04/27 00:06:03;;;;;;;8.52;3.42;;;4.50;99.90;;;;;;5107011;28;20047;-73
2023/04/27 00:08:31;;;;;;;7.28;3.72;;;4.40;99.90;;;;;;5108211;28;20560;-74
2023/04/27 00:10:56;;;;;;;6.15;3.80;;;4.50;99.90;;;;;;5107465;28;20084;-74
2023/04/27 00:13:22;;;;;;;11.20;4.15;;;4.50;99.90;;;;;;5107488;28;20043;-74
2023/04/27 00:15:48;;;;;;;9.15;3.83;;;4.60;99.90;;;;;;5108617;28;20406;-74
2023/04/27 00:18:13;;;;;;;7.22;3.65;;;4.60;99.90;;;;;;5107524;28;20132;-74
2023/04/27 00:20:39;;;;;;;9.90;3.35;;;4.60;99.90;;;;;;5108914;28;20031;-74
2023/04/27 00:23:06;;;;;;;3.65;2.13;;;4.60;99.90;;;;;;5106303;28;20513;-74
2023/04/27 00:25:32;;;;;;;4.70;2.30;;;4.60;99.90;;;;;;5108337;28;20083;-74
2023/04/27 00:27:57;;;;;;;7.60;2.28;;;4.60;99.90;;;;;;5108239;28;20047;-74
2023/04/27 00:30:23;;;;;;;3.50;1.90;;;4.70;99.90;;;;;;5107551;28;20044;-74
2023/04/27 00:32:49;;;;;;;4.10;1.90;;;4.70;99.90;;;;;;5108411;28;20130;-73
2023/04/27 00:35:15;;;;;;;4.32;2.00;;;4.60;99.90;;;;;;5118419;27;20047;-73
2023/04/27 00:37:40;;;;;;;8.95;1.80;;;4.70;99.90;;;;;;5128903;27;20080;-73
2023/04/27 00:40:07;;;;;;;3.97;1.80;;;4.70;99.90;;;;;;5109095;27;20402;-73
2023/04/27 00:42:33;;;;;;;3.30;1.73;;;4.60;99.90;;;;;;5128618;27;20402;-73
2023/04/27 00:44:59;;;;;;;6.78;2.35;;;4.70;99.90;;;;;;5110033;27;20047;-73
2023/04/27 00:47:25;;;;;;;6.80;1.95;;;5.00;99.90;;;;;;5127759;27;20031;-73
2023/04/27 00:49:52;;;;;;;3.45;1.98;;;4.60;99.90;;;;;;5127326;27;20051;-73
2023/04/27 00:52:17;;;;;;;5.00;2.38;;;5.60;99.90;;;;;;5126917;27;20123;-73
2023/04/27 00:54:44;;;;;;;5.20;2.20;;;4.50;99.90;;;;;;5128522;27;20122;-73
2023/04/27 00:57:09;;;;;;;5.63;1.83;;;4.40;99.90;;;;;;5127281;27;20553;-72
2023/04/27 00:59:35;;;;;;;5.13;2.08;;;4.40;99.90;;;;;;5109904;27;20043;-73
2023/04/27 01:02:01;;;;;;;3.45;1.80;;;4.40;99.90;;;;;;5128094;27;20050;-73
2023/04/27 01:04:28;;;;;;;5.70;2.80;;;4.30;99.90;;;;;;5127305;27;20039;-73
2023/04/27 01:06:54;;;;;;;5.15;1.95;;;4.20;99.90;;;;;;5130003;27;20043;-73
2023/04/27 01:09:20;;;;;;;4.78;2.55;;;4.10;99.90;;;;;;5133906;27;20054;-73
2023/04/27 01:11:46;;;;;;;4.50;1.85;;;4.00;99.90;;;;;;5133826;27;20043;-73
2023/04/27 01:14:12;;;;;;;3.17;1.83;;;4.00;99.90;;;;;;5115021;27;20046;-73
2023/04/27 01:16:37;;;;;;;4.18;2.00;;;3.90;99.90;;;;;;5134170;27;20035;-73
2023/04/27 01:19:03;;;;;;;3.95;2.45;;;3.90;99.90;;;;;;5132628;27;20065;-73
2023/04/27 01:21:29;;;;;;;5.30;2.60;;;3.80;99.90;;;;;;5133703;27;20488;-72
2023/04/27 01:23:55;;;;;;;4.47;2.17;;;4.80;99.90;;;;;;5132912;27;20047;-73
2023/04/27 01:26:21;;;;;;;3.13;2.10;;;3.70;99.90;;;;;;5133960;27;20126;-73
2023/04/27 01:28:47;;;;;;;4.43;2.30;;;3.60;99.90;;;;;;5114952;27;20118;-73
2023/04/27 01:31:14;;;;;;;8.75;2.53;;;3.60;99.90;;;;;;5114844;27;20336;-74
2023/04/27 01:33:40;;;;;;;5.30;2.78;;;3.50;99.90;;;;;;5133847;27;20055;-73
2023/04/27 01:36:07;;;;;;;3.45;2.40;;;3.40;99.90;;;;;;5132397;27;20054;-73
2023/04/27 01:38:33;;;;;;;2.80;2.22;;;3.40;99.90;;;;;;5134183;27;20080;-73
2023/04/27 01:41:00;;;;;;;4.18;2.78;;;3.40;99.90;;;;;;5113977;27;20043;-73
2023/04/27 01:43:27;;;;;;;4.50;2.25;;;3.30;99.90;;;;;;5115041;27;20485;-73
2023/04/27 01:45:53;;;;;;;4.13;2.95;;;3.30;99.90;;;;;;5133307;27;20366;-73
2023/04/27 01:48:18;;;;;;;4.50;2.85;;;3.20;99.90;;;;;;5132972;27;20039;-73
2023/04/27 01:50:44;;;;;;;4.05;2.60;;;3.10;99.90;;;;;;5114686;27;20043;-73
2023/04/27 01:53:10;;;;;;;8.32;3.20;;;3.20;99.90;;;;;;5113467;27;20057;-73
2023/04/27 01:55:36;;;;;;;5.18;3.33;;;3.10;99.90;;;;;;5114853;27;20039;-73
2023/04/27 01:58:01;;;;;;;6.38;3.70;;;3.10;99.90;;;;;;5132084;27;20043;-73
2023/04/27 02:00:27;;;;;;;6.28;4.05;;;3.00;99.90;;;;;;5114381;27;20047;-73
2023/04/27 02:02:56;;;;;;;6.78;4.15;;;3.00;99.90;;;;;;5079978;27;20043;-73
2023/04/27 02:05:22;;;;;;;9.20;4.65;;;3.00;99.90;;;;;;5132798;27;20436;-74
2023/04/27 02:07:48;;;;;;;8.70;4.63;;;3.00;99.90;;;;;;5114587;27;20047;-73
2023/04/27 02:10:14;;;;;;;9.45;4.68;;;3.00;99.90;;;;;;5096456;27;20115;-73
2023/04/27 02:12:40;;;;;;;7.43;4.63;;;3.00;99.90;;;;;;5114242;27;20039;-73
2023/04/27 02:15:06;;;;;;;8.57;4.38;;;3.00;99.90;;;;;;5113217;27;20083;-73
2023/04/27 02:17:33;;;;;;;8.05;5.10;;;3.00;99.90;;;;;;5114248;27;20096;-73
2023/04/27 02:19:59;;;;;;;8.15;4.97;;;3.00;99.90;;;;;;5113495;27;20102;-73
2023/04/27 02:22:25;;;;;;;8.40;5.15;;;2.90;99.90;;;;;;5113954;27;20054;-73
2023/04/27 02:24:50;;;;;;;12.60;4.75;;;3.60;99.90;;;;;;5114476;27;20058;-73
2023/04/27 02:27:16;;;;;;;9.25;5.60;;;3.00;99.90;;;;;;5096356;27;20500;-73
2023/04/27 02:29:42;;;;;;;8.45;5.10;;;2.90;99.90;;;;;;5114338;27;20043;-73
2023/04/27 02:32:07;;;;;;;10.27;4.90;;;3.20;99.90;;;;;;5131518;27;20130;-72
2023/04/27 02:34:33;;;;;;;12.27;6.03;;;2.90;99.90;;;;;;5132509;27;20139;-73
2023/04/27 02:36:59;;;;;;;10.32;4.95;;;2.90;99.90;;;;;;5130004;27;20401;-73
2023/04/27 02:39:25;;;;;;;7.88;4.72;;;2.90;99.90;;;;;;5130957;27;20046;-73
2023/04/27 02:41:50;;;;;;;10.18;4.97;;;2.80;99.90;;;;;;5130175;27;20027;-73
2023/04/27 02:44:16;;;;;;;10.60;5.30;;;2.80;99.90;;;;;;5130652;27;20035;-73
2023/04/27 02:46:42;;;;;;;7.13;4.97;;;2.70;99.90;;;;;;5130218;27;20045;-73
2023/04/27 02:49:07;;;;;;;5.60;4.38;;;3.90;99.90;;;;;;5130049;27;20047;-73
2023/04/27 02:51:33;;;;;;;6.40;4.32;;;2.60;99.90;;;;;;5130750;27;20035;-73
2023/04/27 02:53:59;;;;;;;8.35;4.38;;;2.60;99.90;;;;;;5129741;27;20046;-73
2023/04/27 02:56:25;;;;;;;9.50;6.07;;;2.90;99.90;;;;;;5130930;27;20043;-73
2023/04/27 02:58:50;;;;;;;6.82;4.63;;;2.90;99.90;;;;;;5129943;27;20119;-72
2023/04/27 03:01:16;;;;;;;7.00;4.47;;;2.50;99.90;;;;;;5130580;27;20078;-73
2023/04/27 03:03:48;;;;;;;6.28;4.88;;;2.60;99.90;;;;;;5130082;27;20050;-73
2023/04/27 03:06:14;;;;;;;8.32;4.47;;;2.40;99.90;;;;;;5130224;27;20047;-73
2023/04/27 03:08:40;;;;;;;7.43;4.80;;;2.40;99.90;;;;;;5130387;28;20111;-73
2023/04/27 03:11:08;;;;;;;10.63;4.78;;;2.40;99.90;;;;;;5129897;28;20047;-73
2023/04/27 03:13:40;;;;;;;9.63;4.25;;;2.30;99.90;;;;;;5132997;27;20134;-73
2023/04/27 03:16:07;;;;;;;6.13;3.80;;;2.30;99.90;;;;;;5134402;27;20122;-73
2023/04/27 03:18:33;;;;;;;8.32;4.65;;;2.20;99.90;;;;;;5134326;27;20047;-73
2023/04/27 03:21:09;;;;;;;7.78;4.90;;;2.20;99.90;;;;;;5115666;27;20073;-73
2023/04/27 03:23:35;;;;;;;6.72;4.22;;;2.20;99.90;;;;;;5134173;27;20035;-73
2023/04/27 03:26:08;;;;;;;12.10;4.30;;;2.40;99.90;;;;;;5116045;27;20064;-73
2023/04/27 03:28:35;;;;;;;7.60;4.70;;;2.10;99.90;;;;;;5115531;27;20112;-73
2023/04/27 03:31:07;;;;;;;8.88;5.50;;;2.10;99.90;;;;;;5134644;27;20047;-73
2023/04/27 03:33:33;;;;;;;6.95;4.28;;;2.10;99.90;;;;;;5115343;27;20054;-73
2023/04/27 03:35:59;;;;;;;9.70;5.45;;;2.10;99.90;;;;;;5133022;27;20054;-73
2023/04/27 03:38:26;;;;;;;8.70;4.75;;;2.00;99.90;;;;;;5132848;27;20373;-73
2023/04/27 03:40:52;;;;;;;10.52;4.72;;;2.00;99.90;;;;;;5114020;27;20043;-73
2023/04/27 03:43:19;;;;;;;7.78;4.80;;;2.00;99.90;;;;;;5133538;27;20055;-73
2023/04/27 03:45:45;;;;;;;7.95;4.85;;;2.00;99.90;;;;;;5113808;27;20118;-73
2023/04/27 03:48:12;;;;;;;7.45;5.20;;;2.00;99.90;;;;;;5132965;27;20401;-73
2023/04/27 03:50:37;;;;;;;8.65;5.18;;;1.90;99.90;;;;;;5113420;27;20055;-73
2023/04/27 03:53:03;;;;;;;10.27;5.43;;;2.00;99.90;;;;;;5096949;27;20047;-73
2023/04/27 03:55:30;;;;;;;6.63;4.55;;;1.20;99.90;;;;;;5132411;27;20047;-72
2023/04/27 03:57:56;;;;;;;10.02;4.75;;;2.00;99.90;;;;;;5114002;27;20049;-73
2023/04/27 04:00:21;;;;;;;12.38;4.93;;;2.00;99.90;;;;;;5114327;27;20779;-73
2023/04/27 04:02:47;;;;;;;10.13;5.60;;;2.20;99.90;;;;;;5131485;27;20043;-73
2023/04/27 04:05:15;;;;;;;11.15;6.45;;;2.00;99.90;;;;;;5132751;27;20042;-73
2023/04/27 04:07:42;;;;;;;14.13;6.32;;;3.00;99.90;;;;;;5113268;27;20062;-73
2023/04/27 04:10:08;;;;;;;9.45;6.03;;;2.10;99.90;;;;;;5132490;27;20043;-73
2023/04/27 04:12:34;;;;;;;9.65;5.80;;;3.40;99.90;;;;;;5132017;27;20073;-73
2023/04/27 04:15:00;;;;;;;9.05;5.82;;;2.20;99.90;;;;;;5113684;27;20137;-74
2023/04/27 04:17:26;;;;;;;14.10;8.68;;;2.20;99.90;;;;;;5132693;27;20129;-73
2023/04/27 04:19:51;;;;;;;15.57;5.97;;;2.30;99.90;;;;;;5131518;27;20038;-73
2023/04/27 04:22:17;;;;;;;9.68;6.70;;;2.50;99.90;;;;;;5132403;27;20070;-73
2023/04/27 04:24:43;;;;;;;9.63;6.28;;;2.40;99.90;;;;;;5112873;27;20039;-73
2023/04/27 04:27:08;;;;;;;11.55;6.70;;;2.30;99.90;;;;;;5132300;27;20475;-73
2023/04/27 04:29:34;;;;;;;12.93;6.68;;;2.30;99.90;;;;;;5131620;27;20046;-73
2023/04/27 04:32:00;;;;;;;13.15;6.70;;;2.30;99.90;;;;;;5132002;27;20126;-74
2023/04/27 04:34:28;;;;;;;9.85;6.45;;;2.30;99.90;;;;;;5079494;27;20406;-73
2023/04/27 04:36:56;;;;;;;9.82;6.18;;;2.30;99.90;;;;;;5130057;27;20051;-74
2023/04/27 04:39:22;;;;;;;9.45;6.40;;;2.40;99.90;;;;;;5113146;27;20050;-73
2023/04/27 04:41:48;;;;;;;9.27;5.90;;;2.40;99.90;;;;;;5129477;27;20435;-74
2023/04/27 04:44:15;;;;;;;9.27;5.90;;;3.40;99.90;;;;;;5112418;27;20535;-74
2023/04/27 04:46:41;;;;;;;9.35;6.57;;;2.50;99.90;;;;;;5111130;27;20043;-74
2023/04/27 04:49:07;;;;;;;11.68;5.78;;;2.60;99.90;;;;;;5130625;27;20458;-74
2023/04/27 04:51:33;;;;;;;12.20;6.28;;;2.60;99.90;;;;;;5112184;27;20473;-73
2023/04/27 04:53:59;;;;;;;11.82;6.90;;;2.80;99.90;;;;;;5129547;27;20099;-74
2023/04/27 04:56:25;;;;;;;9.45;6.38;;;2.70;99.90;;;;;;5096128;27;20039;-73
2023/04/27 04:58:50;;;;;;;7.28;5.90;;;3.00;99.90;;;;;;5110976;27;20388;-73
2023/04/27 05:01:16;;;;;;;8.88;6.45;;;2.80;99.90;;;;;;5131015;27;20050;-73
2023/04/27 05:03:43;;;;;;;8.02;5.57;;;2.90;99.90;;;;;;5111116;27;20606;-73
2023/04/27 05:06:08;;;;;;;9.30;6.03;;;4.20;99.90;;;;;;5130797;27;20730;-73
2023/04/27 05:08:34;;;;;;;8.85;5.50;;;3.00;99.90;;;;;;5111896;27;20038;-73
2023/04/27 05:11:00;;;;;;;10.07;5.47;;;3.10;99.90;;;;;;5129642;27;20039;-74
2023/04/27 05:13:26;;;;;;;12.95;5.35;;;3.20;99.90;;;;;;5112673;27;20046;-73
2023/04/27 05:15:52;;;;;;;8.85;5.72;;;3.20;99.90;;;;;;5110254;27;20505;-73
2023/04/27 05:18:18;;;;;;;10.65;5.97;;;4.80;99.90;;;;;;5112057;27;20042;-73
2023/04/27 05:20:44;;;;;;;6.18;4.72;;;3.40;99.90;;;;;;5129200;27;20043;-73
2023/04/27 05:23:10;;;;;;;7.80;4.72;;;3.50;99.90;;;;;;5130247;27;20417;-73
2023/04/27 05:25:40;;;;;;;7.25;5.07;;;3.60;99.90;;;;;;5129523;27;20241;-73
2023/04/27 05:28:07;;;;;;;10.40;5.32;;;3.70;99.90;;;;;;5129081;27;20041;-73
2023/04/27 05:30:33;;;;;;;10.45;4.40;;;3.80;99.90;;;;;;5095088;27;20135;-73
2023/04/27 05:32:59;;;;;;;17.25;4.28;;;3.90;99.90;;;;;;5128546;27;20062;-73
2023/04/27 05:35:25;;;;;;;12.02;4.80;;;4.30;99.90;;;;;;5110833;27;20126;-73
2023/04/27 05:37:51;;;;;;;8.50;4.03;;;4.10;99.90;;;;;;5092988;27;20050;-73
2023/04/27 05:40:17;;;;;;;11.85;4.25;;;4.20;99.90;;;;;;5111203;27;20088;-73
2023/04/27 05:42:45;;;;;;;7.75;4.63;;;4.30;99.90;;;;;;5129537;27;20043;-73
2023/04/27 05:45:11;;;;;;;9.75;3.75;;;4.40;99.90;;;;;;5128479;27;20045;-73
2023/04/27 05:47:36;;;;;;;7.32;4.55;;;4.50;99.90;;;;;;5130112;27;20043;-73
2023/04/27 05:50:02;;;;;;;7.07;3.75;;;4.50;99.90;;;;;;5128024;27;20039;-72
2023/04/27 05:52:29;;;;;;;7.95;3.78;;;4.70;99.90;;;;;;5129745;27;20458;-73
2023/04/27 05:54:57;;;;;;;11.15;3.45;;;4.70;99.90;;;;;;5128050;27;20079;-73
2023/04/27 05:57:23;;;;;;;5.97;3.55;;;4.80;99.90;;;;;;5129617;27;20090;-72
2023/04/27 05:59:49;;;;;;;10.77;4.60;;;4.90;99.90;;;;;;5110234;27;20044;-72
2023/04/27 06:02:16;;;;;;;8.48;3.60;;;4.90;99.90;;;;;;5109814;27;20103;-73
2023/04/27 06:04:41;;;;;;;5.97;3.28;;;5.00;99.90;;;;;;5111772;27;20039;-73
2023/04/27 06:07:11;;;;;;;5.72;3.53;;;5.30;99.90;;;;;;5127629;27;20042;-75
2023/04/27 06:09:37;;;;;;;7.45;3.47;;;5.30;99.90;;;;;;5094091;27;20054;-75
2023/04/27 06:12:04;;;;;;;9.27;3.63;;;5.40;99.90;;;;;;5127647;27;20047;-75
2023/04/27 06:14:31;;;;;;;5.57;3.33;;;5.50;99.90;;;;;;5129227;27;20050;-75
2023/04/27 06:16:56;;;;;;;10.77;3.65;;;5.60;99.90;;;;;;5093277;27;20398;-75
2023/04/27 06:19:22;;;;;;;4.75;3.22;;;5.70;99.90;;;;;;5128402;27;20039;-75
2023/04/27 06:21:48;;;;;;;7.43;2.78;;;5.70;99.90;;;;;;5129664;27;20070;-75
2023/04/27 06:24:14;;;;;;;3.85;2.20;;;5.70;99.90;;;;;;5109568;27;20139;-75
2023/04/27 06:26:40;;;;;;;9.43;2.47;;;6.20;99.90;;;;;;5129112;27;20031;-75
2023/04/27 06:29:06;;;;;;;4.63;2.65;;;7.00;99.90;;;;;;5127744;27;20043;-75
2023/04/27 06:31:33;;;;;;;6.80;2.35;;;5.90;99.90;;;;;;5128673;27;20520;-77
2023/04/27 06:33:59;;;;;;;7.22;2.53;;;7.00;99.90;;;;;;5092274;27;20139;-76
2023/04/27 06:36:27;;;;;;;6.05;2.35;;;6.10;99.90;;;;;;5109955;27;20542;-77
2023/04/27 06:38:55;;;;;;;5.15;2.50;;;6.20;99.90;;;;;;5110418;27;20035;-77
2023/04/27 06:41:21;;;;;;;7.53;2.65;;;6.50;99.90;;;;;;5108736;27;20054;-77
2023/04/27 06:43:47;;;;;;;4.00;2.00;;;6.50;99.90;;;;;;5110283;27;20043;-75
2023/04/27 06:46:13;;;;;;;13.05;2.08;;;6.60;99.90;;;;;;5091772;27;20054;-76
2023/04/27 06:48:38;;;;;;;4.00;2.20;;;6.70;99.90;;;;;;5127673;27;20049;-76
2023/04/27 06:51:04;;;;;;;6.82;1.80;;;6.80;99.90;;;;;;5109329;27;20047;-75
2023/04/27 06:53:30;;;;;;;4.70;1.70;;;6.90;99.90;;;;;;5128113;27;20043;-75
2023/04/27 06:55:56;;;;;;;3.15;1.48;;;7.10;99.90;;;;;;5076709;28;20131;-75
2023/04/27 06:58:22;;;;;;;4.57;1.50;;;7.20;99.90;;;;;;5108895;27;20043;-76
2023/04/27 07:00:48;;;;;;;5.70;1.40;;;7.30;99.90;;;;;;5129170;27;20039;-76
2023/04/27 07:03:13;;;;;;;9.13;1.27;;;7.40;99.90;;;;;;5108577;27;20497;-76
2023/04/27 07:05:39;;;;;;;6.07;1.40;;;8.40;99.90;;;;;;5109719;27;20047;-76
2023/04/27 07:08:05;;;;;;;5.20;1.60;;;7.60;99.90;;;;;;5091821;28;20039;-76
2023/04/27 07:10:31;;;;;;;3.13;1.52;;;7.70;99.90;;;;;;5109287;28;20043;-77
2023/04/27 07:12:57;;;;;;;3.80;1.95;;;7.80;99.90;;;;;;5128525;28;20134;-75
2023/04/27 07:15:23;;;;;;;8.60;2.65;;;8.00;99.90;;;;;;5091732;28;20054;-75
2023/04/27 07:17:53;;;;;;;5.75;1.20;;;8.00;99.90;;;;;;5128550;28;20114;-75
2023/04/27 07:20:19;;;;;;;7.72;1.20;;;8.10;99.90;;;;;;5108839;28;20445;-76
2023/04/27 07:22:45;;;;;;;10.35;1.33;;;8.20;99.90;;;;;;5110001;28;20043;-75
2023/04/27 07:25:11;;;;;;;5.90;1.65;;;8.30;99.90;;;;;;5127381;28;20046;-76
2023/04/27 07:27:37;;;;;;;1.98;1.02;;;8.40;99.90;;;;;;5128195;28;20118;-77
2023/04/27 07:30:05;;;;;;;3.55;1.20;;;8.50;99.90;;;;;;5128497;28;20043;-77
2023/04/27 07:32:31;;;;;;;4.15;1.67;;;8.60;99.90;;;;;;5126976;28;20032;-75
2023/04/27 07:34:57;;;;;;;3.40;1.35;;;8.70;99.90;;;;;;5128296;28;20113;-75
2023/04/27 07:37:23;;;;;;;4.07;1.45;;;8.80;99.90;;;;;;5126833;28;20035;-77
2023/04/27 07:39:51;;;;;;;4.70;1.20;;;8.90;99.90;;;;;;5093019;28;20055;-76
2023/04/27 07:42:18;;;;;;;2.15;1.00;;;9.00;99.90;;;;;;5127466;28;20118;-77
2023/04/27 07:44:44;;;;;;;3.08;1.30;;;9.10;99.90;;;;;;5109173;28;20481;-75
2023/04/27 07:47:09;;;;;;;7.65;1.30;;;9.30;99.90;;;;;;5128028;27;20138;-76
2023/04/27 07:49:36;;;;;;;3.65;1.10;;;9.40;99.90;;;;;;5091375;28;20039;-75
2023/04/27 07:52:03;;;;;;;3.58;0.98;;;9.50;99.90;;;;;;5110126;28;20047;-79
2023/04/27 07:54:29;;;;;;;6.70;1.75;;;9.60;99.90;;;;;;5108090;28;20085;-79
2023/04/27 07:56:55;;;;;;;4.65;1.10;;;9.80;99.90;;;;;;5109685;28;20128;-77
2023/04/27 07:59:20;;;;;;;3.65;1.10;;;10.00;99.90;;;;;;5093152;27;20047;-77
2023/04/27 08:01:46;;;;;;;3.10;0.80;;;10.10;99.90;;;;;;5131879;27;20039;-77
2023/04/27 08:04:12;;;;;;;1.95;1.10;;;10.10;99.90;;;;;;5131820;27;20043;-77
2023/04/27 08:06:38;;;;;;;3.10;1.15;;;10.10;99.90;;;;;;5112524;27;20078;-77
2023/04/27 08:09:04;;;;;;;2.70;1.40;;;10.10;99.90;;;;;;5114072;27;20389;-78
2023/04/27 08:11:30;;;;;;;7.85;1.30;;;10.10;99.90;;;;;;5111628;27;20130;-76
2023/04/27 08:13:56;;;;;;;2.65;1.70;;;10.10;99.90;;;;;;5131767;27;20082;-76
2023/04/27 08:16:22;;;;;;;5.97;1.00;;;10.30;99.90;;;;;;5112073;27;20074;-77
2023/04/27 08:18:49;;;;;;;6.65;1.48;;;10.40;99.90;;;;;;5131659;27;20104;-78
2023/04/27 08:21:15;;;;;;;3.20;0.80;;;10.70;99.90;;;;;;5113194;27;20096;-77
2023/04/27 08:23:41;;;;;;;4.72;1.45;;;11.10;99.90;;;;;;5130259;27;20400;-77
2023/04/27 08:26:07;;;;;;;7.13;1.17;;;11.50;99.90;;;;;;5113098;27;20054;-74
2023/04/27 08:28:32;;;;;;;4.57;1.20;;;11.80;99.90;;;;;;5129841;27;20043;-74
2023/04/27 08:31:01;;;;;;;5.28;1.23;;;11.90;99.90;;;;;;5131565;27;20043;-74
2023/04/27 08:33:26;;;;;;;3.58;1.35;;;12.00;99.90;;;;;;5129802;27;20549;-74
2023/04/27 08:35:55;;;;;;;6.50;1.25;;;12.00;99.90;;;;;;5130759;27;20138;-76
2023/04/27 08:38:21;;;;;;;2.13;1.27;;;12.00;99.90;;;;;;5112693;27;20405;-77
2023/04/27 08:40:47;;;;;;;6.28;1.55;;;11.90;99.90;;;;;;5129977;27;20054;-74
2023/04/27 08:43:12;;;;;;;3.53;1.30;;;11.90;99.90;;;;;;5131300;27;20039;-73
2023/04/27 08:45:46;;;;;;;2.97;1.23;;;11.90;99.70;;;;;;5129690;27;20039;-74
2023/04/27 08:48:12;;;;;;;3.17;1.40;;;12.00;99.50;;;;;;5130944;27;20047;-74
2023/04/27 08:50:42;;;;;;;3.15;1.20;;;12.00;98.70;;;;;;5129663;27;20040;-74
2023/04/27 08:53:19;;;;;;;5.13;1.48;;;12.00;97.30;;;;;;5130812;27;20047;-74
2023/04/27 08:55:45;;;;;;;4.85;1.10;;;12.00;96.40;;;;;;5112769;27;20047;-74
2023/04/27 08:58:11;;;;;;;3.30;1.00;;;12.00;97.50;;;;;;5111072;27;20385;-74
2023/04/27 09:00:41;;;;;;;2.38;1.10;;;11.90;97.10;;;;;;5095484;27;20047;-74
2023/04/27 09:03:20;;;;;;;1.42;0.88;;;12.00;96.90;;;;;;5110685;27;20146;-74
2023/04/27 09:05:46;;;;;;;3.15;0.93;;;12.00;94.70;;;;;;5130519;27;20051;-74
2023/04/27 09:08:12;;;;;;;3.92;1.25;;;12.00;96.60;;;;;;5111319;27;20117;-74
2023/04/27 09:10:49;;;;;;;3.17;1.20;;;12.00;96.00;;;;;;5128773;27;20795;-74
2023/04/27 09:13:16;;;;;;;3.30;1.63;;;12.20;94.40;;;;;;5130811;27;20478;-74
2023/04/27 09:15:47;;;;;;;5.75;1.25;;;12.40;95.60;;;;;;5129119;27;20043;-74
2023/04/27 09:18:17;;;;;;;2.13;0.93;;;12.50;94.90;;;;;;5130558;27;20367;-75
2023/04/27 09:20:45;;;;;;;4.07;1.40;;;12.70;94.50;;;;;;5129499;27;20118;-75
2023/04/27 09:23:30;;;;;;;2.17;1.20;;;12.80;94.30;;;;;;5130210;27;20362;-75
2023/04/27 09:25:58;;;;;;;5.65;1.85;;;13.00;93.80;;;;;;5112027;27;20098;-75
2023/04/27 09:28:29;;;;;;;3.63;1.75;;;13.10;93.60;;;;;;5128793;27;20043;-74
2023/04/27 09:30:57;;;;;;;4.82;1.80;;;13.20;93.10;;;;;;5111768;27;20505;-75
2023/04/27 09:33:31;;;;;;;5.25;1.70;;;13.30;92.80;;;;;;5128871;27;20388;-76
2023/04/27 09:36:01;;;;;;;4.97;1.90;;;13.40;92.40;;;;;;5111220;27;20104;-77
2023/04/27 09:38:29;;;;;;;5.35;2.20;;;13.40;92.40;;;;;;5130025;27;20130;-77
2023/04/27 09:40:55;;;;;;;7.57;1.80;;;13.40;92.00;;;;;;5128883;27;20042;-76
2023/04/27 09:43:22;;;;;;;3.85;1.73;;;13.40;91.30;;;;;;5111702;27;20057;-76
2023/04/27 09:45:49;;;;;;;5.72;2.10;;;13.30;91.30;;;;;;5109658;27;20094;-76
2023/04/27 09:48:15;;;;;;;5.28;1.52;;;13.30;90.70;;;;;;5094238;27;20047;-77
2023/04/27 09:50:44;;;;;;;7.90;1.95;;;13.30;90.80;;;;;;5128448;27;20047;-77
2023/04/27 09:53:17;;;;;;;9.60;2.65;;;13.40;90.40;;;;;;5110933;27;20104;-77
2023/04/27 09:56:21;;;;;;;4.13;1.77;;;13.40;90.50;;;;;;5130061;27;20046;-75
2023/04/27 09:59:02;;;;;;;4.25;2.65;;;13.40;89.60;;;;;;5080166;27;20051;-77
2023/04/27 10:01:48;;;;;;;7.35;2.70;;;13.30;90.30;;;;;;5129912;27;20050;-76
2023/04/27 10:04:25;;;;;;;4.68;2.22;;;13.30;90.40;;;;;;5130014;27;20402;-75
2023/04/27 10:06:59;;;;;;;6.43;2.30;;;13.20;89.70;;;;;;5109442;27;20130;-78
2023/04/27 10:09:34;;;;;;;5.97;2.30;;;13.20;89.80;;;;;;5111580;27;20039;-77
2023/04/27 10:12:13;;;;;;;5.78;2.40;;;13.10;90.20;;;;;;5128137;27;20405;-75
2023/04/27 10:14:48;;;;;;;7.20;2.58;;;13.00;89.20;;;;;;5128854;27;20517;-75
2023/04/27 10:17:15;;;;;;;9.50;2.97;;;12.90;90.00;;;;;;5111749;27;20092;-76
2023/04/27 10:20:01;;;;;;;6.10;2.47;;;12.90;90.30;;;;;;5127542;27;20485;-75
2023/04/27 10:22:46;;;;;;;6.50;2.67;;;12.80;89.80;;;;;;5129131;27;20042;-76
2023/04/27 10:25:18;;;;;;;4.38;2.10;;;12.70;89.00;;;;;;5109821;27;20130;-74
2023/04/27 10:27:58;;;;;;;5.95;2.05;;;12.60;89.50;;;;;;5109805;27;20524;-76
2023/04/27 10:30:32;;;;;;;7.18;2.15;;;12.60;89.00;;;;;;5111031;27;20071;-75
2023/04/27 10:32:58;;;;;;;;;;;12.50;90.00;;;;;;5127926;27;20227;-75
2023/04/27 10:35:34;;;;;;;4.88;2.13;;;12.50;87.00;;;;;;5110019;27;19925;-75
2023/04/27 10:38:15;;;;;;;10.13;3.17;;;12.50;89.40;;;;;;5109347;27;20051;-74
2023/04/27 10:40:44;;;;;;;5.15;2.42;;;12.40;90.00;;;;;;5109554;27;20058;-76
2023/04/27 10:43:16;;;;;;;9.32;2.45;;;12.40;90.10;;;;;;5129616;27;20043;-80
2023/04/27 10:45:43;;;;;;;6.38;2.05;;;12.40;89.90;;;;;;5109073;27;20043;-75
2023/04/27 10:48:13;;;;;;;5.70;2.42;;;12.50;90.30;;;;;;5093012;27;20046;-75
2023/04/27 10:50:39;;;;;;;4.90;2.20;;;12.60;90.30;;;;;;5108962;27;20672;-74
2023/04/27 10:53:06;;;;;;;6.78;2.35;;;12.80;90.50;;;;;;5128532;27;20039;-74
2023/04/27 10:55:33;;;;;;;7.95;2.50;;;13.00;90.40;;;;;;5109829;28;20047;-75
2023/04/27 10:58:03;;;;;;;5.60;2.50;;;13.20;90.40;;;;;;5127497;27;20047;-75
2023/04/27 11:00:41;;;;;;;7.53;2.33;;;13.40;90.10;;;;;;5093159;27;20047;-75
2023/04/27 11:03:18;;;;;;;8.05;3.30;;;13.50;89.70;;;;;;5127468;27;20039;-75
2023/04/27 11:05:45;;;;;;;10.82;3.30;;;13.80;89.30;;;;;;5092697;28;20118;-75
2023/04/27 11:08:13;;;;;;;9.55;3.63;;;13.90;88.50;;;;;;5109382;28;20062;-75
2023/04/27 11:10:42;;;;;;;8.40;2.85;;;14.00;87.30;;;;;;5127585;28;20047;-75
2023/04/27 11:13:11;;;;;;;6.55;3.33;;;14.00;86.50;;;;;;5110116;28;20104;-75
2023/04/27 11:15:50;;;;;;;8.30;3.25;;;14.00;85.60;;;;;;5108437;28;20047;-75
2023/04/27 11:18:18;;;;;;;5.68;2.58;;;14.00;84.80;;;;;;5128262;28;20047;-75
2023/04/27 11:20:50;;;;;;;6.25;2.72;;;13.90;85.30;;;;;;5108740;28;20518;-75
2023/04/27 11:23:29;;;;;;;7.40;2.92;;;13.80;86.00;;;;;;5109312;28;20111;-75
2023/04/27 11:25:55;;;;;;;3.88;2.70;;;13.80;86.30;;;;;;5075617;28;20526;-75
2023/04/27 11:28:23;;;;;;;9.30;3.13;;;13.90;87.10;;;;;;5108059;28;20053;-75
2023/04/27 11:30:58;;;;;;;7.57;2.50;;;13.90;86.40;;;;;;5128543;28;20047;-76
2023/04/27 11:33:27;;;;;;;6.80;2.97;;;13.80;84.00;;;;;;5127336;27;20143;-75
2023/04/27 11:35:55;;;;;;;11.10;3.92;;;13.70;85.20;;;;;;5113314;27;20130;-75
2023/04/27 11:38:21;;;;;;;5.63;2.30;;;13.60;85.70;;;;;;5113634;27;20085;-75
2023/04/27 11:41:04;;;;;;;6.55;2.38;;;13.40;85.10;;;;;;5111984;27;20597;-76
2023/04/27 11:43:31;;;;;;;8.13;2.78;;;13.30;85.60;;;;;;5114067;27;20039;-76
2023/04/27 11:45:57;;;;;;;7.90;3.22;;;13.10;86.90;;;;;;5130510;27;20043;-79
2023/04/27 11:48:25;;;;;;;6.25;2.80;;;13.00;87.40;;;;;;5113317;27;20047;-79
2023/04/27 11:50:52;;;;;;;4.32;2.72;;;12.90;87.60;;;;;;5112763;27;20086;-78
2023/04/27 11:53:32;;;;;;;8.27;3.30;;;12.80;88.50;;;;;;5112477;27;20043;-78
2023/04/27 11:56:06;;;;;;;5.22;3.00;;;12.60;88.80;;;;;;5132599;27;20043;-78
2023/04/27 11:58:36;;;;;;;7.78;3.17;;;12.40;89.60;;;;;;5112201;27;20051;-75
2023/04/27 12:01:06;;;;;;;6.43;3.28;;;12.20;90.70;;;;;;5132249;27;20051;-75
2023/04/27 12:03:32;;;;;;;7.18;3.15;;;12.00;92.00;;;;;;5112636;27;20390;-75
2023/04/27 12:05:58;;;;;;;7.60;2.63;;;11.90;93.50;;;;;;5131230;27;20039;-75
2023/04/27 12:08:25;;;;;;;8.50;3.00;;;11.70;95.30;;;;;;5131509;27;20482;-75
2023/04/27 12:10:51;;;;;;;6.53;2.60;;;11.60;96.60;;;;;;5111969;27;20066;-75
2023/04/27 12:13:16;;;;;;;4.13;2.30;;;11.60;97.80;;;;;;5131911;27;20043;-75
2023/04/27 12:15:42;;;;;;;7.57;2.65;;;11.70;98.70;;;;;;5130274;27;20050;-75
2023/04/27 12:18:08;;;;;;;11.23;2.75;;;11.80;99.50;;;;;;5113699;27;20039;-75
2023/04/27 12:20:34;;;;;;;7.78;2.28;;;11.80;99.90;;;;;;5130635;27;20466;-74
2023/04/27 12:23:03;;;;;;;7.70;2.90;;;11.80;99.90;;;;;;5131421;27;20031;-75
2023/04/27 12:25:31;;;;;;;3.17;2.65;;;11.80;99.90;;;;;;5113191;27;20118;-75
2023/04/27 12:27:57;;;;;;;6.55;2.58;;;11.70;99.90;;;;;;5111868;27;20511;-75
2023/04/27 12:30:22;;;;;;;5.40;2.75;;;11.80;99.90;;;;;;5131832;27;20074;-75
2023/04/27 12:32:48;;;;;;;6.55;2.30;;;11.80;99.90;;;;;;5129542;27;20045;-74
2023/04/27 12:35:14;;;;;;;5.90;2.78;;;11.90;99.90;;;;;;5112443;27;20051;-75
2023/04/27 12:37:40;;;;;;;7.00;2.22;;;12.10;99.90;;;;;;5129651;27;20605;-75
2023/04/27 12:40:07;;;;;;;9.45;2.30;;;12.50;99.90;;;;;;5095647;27;20089;-75
2023/04/27 12:42:34;;;;;;;4.28;2.20;;;12.80;99.90;;;;;;5095444;27;20069;-74
2023/04/27 12:45:01;;;;;;;9.65;2.55;;;13.20;99.90;;;;;;5128398;27;20129;-75
2023/04/27 12:47:26;;;;;;;4.32;2.20;;;13.50;99.90;;;;;;5131276;27;20043;-75
2023/04/27 12:49:52;;;;;;;5.90;2.10;;;14.30;99.90;;;;;;5128986;27;20049;-75
2023/04/27 12:52:18;;;;;;;6.50;2.03;;;14.10;99.90;;;;;;5131034;27;20035;-75
2023/04/27 12:54:45;;;;;;;5.88;2.15;;;14.40;99.90;;;;;;5129506;27;20433;-74